sensor_id;sensor_type;location;lat;lon;timestamp;P1;durP1;ratioP1;P2;durP2;ratioP2
64714;SDS011;51144;53.002;6.506;2023-04-25T00:00:27;24.75;;;3.50;;
64714;SDS011;51144;53.002;6.506;2023-04-25T00:02:52;22.65;;;3.55;;
64714;SDS011;51144;53.002;6.506;2023-04-25T00:05:18;24.45;;;4.00;;
64714;SDS011;51144;53.002;6.506;2023-04-25T00:07:44;22.38;;;3.92;;
64714;SDS011;51144;53.002;6.506;2023-04-25T00:10:11;23.35;;;3.85;;
64714;SDS011;51144;53.002;6.506;2023-04-25T00:12:37;22.95;;;4.15;;
64714;SDS011;51144;53.002;6.506;2023-04-25T00:15:04;28.42;;;3.75;;
64714;SDS011;51144;53.002;6.506;2023-04-25T00:17:30;27.95;;;4.95;;
64714;SDS011;51144;53.002;6.506;2023-04-25T00:19:56;34.38;;;4.45;;
64714;SDS011;51144;53.002;6.506;2023-04-25T00:22:23;31.20;;;4.32;;
64714;SDS011;51144;53.002;6.506;2023-04-25T00:24:49;24.27;;;3.58;;
64714;SDS011;51144;53.002;6.506;2023-04-25T00:27:15;31.02;;;4.50;;
64714;SDS011;51144;53.002;6.506;2023-04-25T00:29:41;22.05;;;3.97;;
64714;SDS011;51144;53.002;6.506;2023-04-25T00:32:06;22.33;;;4.43;;
64714;SDS011;51144;53.002;6.506;2023-04-25T00:34:32;26.30;;;3.70;;
64714;SDS011;51144;53.002;6.506;2023-04-25T00:36:57;29.23;;;3.88;;
64714;SDS011;51144;53.002;6.506;2023-04-25T00:39:26;24.05;;;4.70;;
64714;SDS011;51144;53.002;6.506;2023-04-25T00:41:52;19.95;;;4.05;;
64714;SDS011;51144;53.002;6.506;2023-04-25T00:44:19;19.90;;;4.15;;
64714;SDS011;51144;53.002;6.506;2023-04-25T00:46:47;23.20;;;3.55;;
64714;SDS011;51144;53.002;6.506;2023-04-25T00:49:14;22.35;;;3.58;;
64714;SDS011;51144;53.002;6.506;2023-04-25T00:51:41;22.88;;;3.67;;
64714;SDS011;51144;53.002;6.506;2023-04-25T00:54:09;22.90;;;3.40;;
64714;SDS011;51144;53.002;6.506;2023-04-25T00:56:36;30.05;;;4.85;;
64714;SDS011;51144;53.002;6.506;2023-04-25T00:59:01;27.65;;;4.40;;
64714;SDS011;51144;53.002;6.506;2023-04-25T01:01:27;33.65;;;5.20;;
64714;SDS011;51144;53.002;6.506;2023-04-25T01:03:53;23.92;;;4.68;;
64714;SDS011;51144;53.002;6.506;2023-04-25T01:06:19;22.15;;;3.83;;
64714;SDS011;51144;53.002;6.506;2023-04-25T01:08:44;33.17;;;4.90;;
64714;SDS011;51144;53.002;6.506;2023-04-25T01:11:10;29.73;;;4.10;;
64714;SDS011;51144;53.002;6.506;2023-04-25T01:13:36;29.50;;;3.65;;
64714;SDS011;51144;53.002;6.506;2023-04-25T01:16:02;19.30;;;3.17;;
64714;SDS011;51144;53.002;6.506;2023-04-25T01:18:28;28.08;;;3.42;;
64714;SDS011;51144;53.002;6.506;2023-04-25T01:20:54;30.27;;;4.15;;
64714;SDS011;51144;53.002;6.506;2023-04-25T01:23:20;24.33;;;2.70;;
64714;SDS011;51144;53.002;6.506;2023-04-25T01:25:47;27.00;;;3.45;;
64714;SDS011;51144;53.002;6.506;2023-04-25T01:28:14;25.77;;;3.65;;
64714;SDS011;51144;53.002;6.506;2023-04-25T01:30:41;18.65;;;3.17;;
64714;SDS011;51144;53.002;6.506;2023-04-25T01:33:08;28.02;;;3.80;;
64714;SDS011;51144;53.002;6.506;2023-04-25T01:35:35;26.75;;;2.95;;
64714;SDS011;51144;53.002;6.506;2023-04-25T01:38:00;22.60;;;3.20;;
64714;SDS011;51144;53.002;6.506;2023-04-25T01:40:26;27.92;;;3.55;;
64714;SDS011;51144;53.002;6.506;2023-04-25T01:42:53;19.48;;;3.95;;
64714;SDS011;51144;53.002;6.506;2023-04-25T01:45:19;26.25;;;3.22;;
64714;SDS011;51144;53.002;6.506;2023-04-25T01:47:45;26.58;;;3.70;;
64714;SDS011;51144;53.002;6.506;2023-04-25T01:50:15;26.20;;;3.40;;
64714;SDS011;51144;53.002;6.506;2023-04-25T01:52:42;33.15;;;3.97;;
64714;SDS011;51144;53.002;6.506;2023-04-25T01:55:08;23.90;;;3.10;;
64714;SDS011;51144;53.002;6.506;2023-04-25T01:57:34;17.80;;;2.30;;
64714;SDS011;51144;53.002;6.506;2023-04-25T02:00:01;22.10;;;3.47;;
64714;SDS011;51144;53.002;6.506;2023-04-25T02:02:29;18.05;;;3.20;;
64714;SDS011;51144;53.002;6.506;2023-04-25T02:04:55;25.33;;;3.78;;
64714;SDS011;51144;53.002;6.506;2023-04-25T02:07:21;18.95;;;2.10;;
64714;SDS011;51144;53.002;6.506;2023-04-25T02:09:47;28.58;;;4.53;;
64714;SDS011;51144;53.002;6.506;2023-04-25T02:12:12;18.58;;;3.00;;
64714;SDS011;51144;53.002;6.506;2023-04-25T02:14:38;18.40;;;2.22;;
64714;SDS011;51144;53.002;6.506;2023-04-25T02:17:04;20.73;;;4.03;;
64714;SDS011;51144;53.002;6.506;2023-04-25T02:19:30;13.80;;;2.67;;
64714;SDS011;51144;53.002;6.506;2023-04-25T02:21:56;26.98;;;3.55;;
64714;SDS011;51144;53.002;6.506;2023-04-25T02:24:22;22.45;;;2.95;;
64714;SDS011;51144;53.002;6.506;2023-04-25T02:26:48;30.02;;;3.20;;
64714;SDS011;51144;53.002;6.506;2023-04-25T02:29:14;22.23;;;3.30;;
64714;SDS011;51144;53.002;6.506;2023-04-25T02:31:40;17.65;;;2.92;;
64714;SDS011;51144;53.002;6.506;2023-04-25T02:34:06;19.75;;;2.72;;
64714;SDS011;51144;53.002;6.506;2023-04-25T02:36:32;27.63;;;4.57;;
64714;SDS011;51144;53.002;6.506;2023-04-25T02:38:59;16.30;;;2.38;;
64714;SDS011;51144;53.002;6.506;2023-04-25T02:41:26;19.63;;;2.78;;
64714;SDS011;51144;53.002;6.506;2023-04-25T02:43:52;27.98;;;3.22;;
64714;SDS011;51144;53.002;6.506;2023-04-25T02:46:17;26.83;;;4.47;;
64714;SDS011;51144;53.002;6.506;2023-04-25T02:48:43;27.58;;;3.92;;
64714;SDS011;51144;53.002;6.506;2023-04-25T02:51:09;20.35;;;2.47;;
64714;SDS011;51144;53.002;6.506;2023-04-25T02:53:34;24.55;;;2.88;;
64714;SDS011;51144;53.002;6.506;2023-04-25T02:56:00;27.27;;;3.35;;
64714;SDS011;51144;53.002;6.506;2023-04-25T02:58:26;24.48;;;2.85;;
64714;SDS011;51144;53.002;6.506;2023-04-25T03:00:52;30.85;;;3.63;;
64714;SDS011;51144;53.002;6.506;2023-04-25T03:03:18;25.58;;;2.67;;
64714;SDS011;51144;53.002;6.506;2023-04-25T03:05:46;19.55;;;3.00;;
64714;SDS011;51144;53.002;6.506;2023-04-25T03:08:15;16.80;;;1.83;;
64714;SDS011;51144;53.002;6.506;2023-04-25T03:10:41;22.30;;;2.58;;
64714;SDS011;51144;53.002;6.506;2023-04-25T03:13:07;23.65;;;2.97;;
64714;SDS011;51144;53.002;6.506;2023-04-25T03:15:33;15.30;;;2.42;;
64714;SDS011;51144;53.002;6.506;2023-04-25T03:17:58;18.48;;;2.03;;
64714;SDS011;51144;53.002;6.506;2023-04-25T03:20:24;16.77;;;2.33;;
64714;SDS011;51144;53.002;6.506;2023-04-25T03:22:50;17.63;;;2.38;;
64714;SDS011;51144;53.002;6.506;2023-04-25T03:25:15;14.38;;;1.83;;
64714;SDS011;51144;53.002;6.506;2023-04-25T03:27:41;13.57;;;1.75;;
64714;SDS011;51144;53.002;6.506;2023-04-25T03:30:06;13.43;;;1.17;;
64714;SDS011;51144;53.002;6.506;2023-04-25T03:32:33;17.52;;;1.15;;
64714;SDS011;51144;53.002;6.506;2023-04-25T03:34:59;10.57;;;1.52;;
64714;SDS011;51144;53.002;6.506;2023-04-25T03:37:24;12.70;;;1.42;;
64714;SDS011;51144;53.002;6.506;2023-04-25T03:39:50;12.30;;;1.05;;
64714;SDS011;51144;53.002;6.506;2023-04-25T03:42:16;8.88;;;0.60;;
64714;SDS011;51144;53.002;6.506;2023-04-25T03:44:42;8.30;;;0.80;;
64714;SDS011;51144;53.002;6.506;2023-04-25T03:47:08;12.85;;;0.80;;
64714;SDS011;51144;53.002;6.506;2023-04-25T03:49:34;8.77;;;0.75;;
64714;SDS011;51144;53.002;6.506;2023-04-25T03:52:00;7.38;;;0.50;;
64714;SDS011;51144;53.002;6.506;2023-04-25T03:54:26;8.93;;;0.88;;
64714;SDS011;51144;53.002;6.506;2023-04-25T03:56:51;7.22;;;1.05;;
64714;SDS011;51144;53.002;6.506;2023-04-25T03:59:17;9.82;;;1.70;;
64714;SDS011;51144;53.002;6.506;2023-04-25T04:01:43;8.50;;;0.75;;
64714;SDS011;51144;53.002;6.506;2023-04-25T04:04:08;10.05;;;1.02;;
64714;SDS011;51144;53.002;6.506;2023-04-25T04:06:34;9.20;;;0.60;;
64714;SDS011;51144;53.002;6.506;2023-04-25T04:09:00;15.35;;;1.30;;
64714;SDS011;51144;53.002;6.506;2023-04-25T04:11:25;5.60;;;0.55;;
64714;SDS011;51144;53.002;6.506;2023-04-25T04:13:51;8.00;;;0.80;;
64714;SDS011;51144;53.002;6.506;2023-04-25T04:16:16;16.23;;;1.40;;
64714;SDS011;51144;53.002;6.506;2023-04-25T04:18:44;7.55;;;0.82;;
64714;SDS011;51144;53.002;6.506;2023-04-25T04:21:10;7.80;;;1.40;;
64714;SDS011;51144;53.002;6.506;2023-04-25T04:23:36;8.77;;;0.95;;
64714;SDS011;51144;53.002;6.506;2023-04-25T04:26:02;9.25;;;0.98;;
64714;SDS011;51144;53.002;6.506;2023-04-25T04:28:28;9.32;;;0.98;;
64714;SDS011;51144;53.002;6.506;2023-04-25T04:30:53;8.63;;;0.77;;
64714;SDS011;51144;53.002;6.506;2023-04-25T04:33:20;9.82;;;1.33;;
64714;SDS011;51144;53.002;6.506;2023-04-25T04:35:46;12.32;;;0.90;;
64714;SDS011;51144;53.002;6.506;2023-04-25T04:38:12;11.38;;;1.10;;
64714;SDS011;51144;53.002;6.506;2023-04-25T04:40:40;11.00;;;1.30;;
64714;SDS011;51144;53.002;6.506;2023-04-25T04:43:08;8.43;;;1.10;;
64714;SDS011;51144;53.002;6.506;2023-04-25T04:45:36;8.98;;;0.70;;
64714;SDS011;51144;53.002;6.506;2023-04-25T04:48:04;5.95;;;0.50;;
64714;SDS011;51144;53.002;6.506;2023-04-25T04:50:30;8.52;;;0.70;;
64714;SDS011;51144;53.002;6.506;2023-04-25T04:52:57;8.13;;;0.68;;
64714;SDS011;51144;53.002;6.506;2023-04-25T04:55:23;9.00;;;0.73;;
64714;SDS011;51144;53.002;6.506;2023-04-25T04:57:48;10.15;;;0.52;;
64714;SDS011;51144;53.002;6.506;2023-04-25T05:00:15;12.43;;;1.33;;
64714;SDS011;51144;53.002;6.506;2023-04-25T05:02:40;15.10;;;1.08;;
64714;SDS011;51144;53.002;6.506;2023-04-25T05:05:06;13.63;;;1.70;;
64714;SDS011;51144;53.002;6.506;2023-04-25T05:07:33;12.80;;;1.48;;
64714;SDS011;51144;53.002;6.506;2023-04-25T05:09:59;9.77;;;0.65;;
64714;SDS011;51144;53.002;6.506;2023-04-25T05:12:24;12.52;;;1.42;;
64714;SDS011;51144;53.002;6.506;2023-04-25T05:14:50;13.23;;;1.55;;
64714;SDS011;51144;53.002;6.506;2023-04-25T05:17:16;10.10;;;1.17;;
64714;SDS011;51144;53.002;6.506;2023-04-25T05:19:41;7.95;;;0.73;;
64714;SDS011;51144;53.002;6.506;2023-04-25T05:22:07;9.98;;;0.70;;
64714;SDS011;51144;53.002;6.506;2023-04-25T05:24:33;6.07;;;0.77;;
64714;SDS011;51144;53.002;6.506;2023-04-25T05:26:58;12.30;;;1.20;;
64714;SDS011;51144;53.002;6.506;2023-04-25T05:29:24;10.07;;;0.75;;
64714;SDS011;51144;53.002;6.506;2023-04-25T05:31:49;10.82;;;1.20;;
64714;SDS011;51144;53.002;6.506;2023-04-25T05:34:15;12.75;;;1.92;;
64714;SDS011;51144;53.002;6.506;2023-04-25T05:36:41;13.55;;;1.30;;
64714;SDS011;51144;53.002;6.506;2023-04-25T05:39:07;12.32;;;0.93;;
64714;SDS011;51144;53.002;6.506;2023-04-25T05:41:34;9.82;;;1.13;;
64714;SDS011;51144;53.002;6.506;2023-04-25T05:43:59;11.60;;;1.38;;
64714;SDS011;51144;53.002;6.506;2023-04-25T05:46:25;9.10;;;1.02;;
64714;SDS011;51144;53.002;6.506;2023-04-25T05:48:50;11.18;;;1.65;;
64714;SDS011;51144;53.002;6.506;2023-04-25T05:51:16;12.88;;;1.13;;
64714;SDS011;51144;53.002;6.506;2023-04-25T05:53:43;15.55;;;1.00;;
64714;SDS011;51144;53.002;6.506;2023-04-25T05:56:09;12.27;;;1.27;;
64714;SDS011;51144;53.002;6.506;2023-04-25T05:58:35;11.15;;;1.27;;
64714;SDS011;51144;53.002;6.506;2023-04-25T06:01:01;9.35;;;0.77;;
64714;SDS011;51144;53.002;6.506;2023-04-25T06:03:27;13.30;;;1.40;;
64714;SDS011;51144;53.002;6.506;2023-04-25T06:05:53;14.65;;;1.48;;
64714;SDS011;51144;53.002;6.506;2023-04-25T06:08:18;12.02;;;1.30;;
64714;SDS011;51144;53.002;6.506;2023-04-25T06:10:44;11.90;;;1.77;;
64714;SDS011;51144;53.002;6.506;2023-04-25T06:13:10;16.27;;;2.13;;
64714;SDS011;51144;53.002;6.506;2023-04-25T06:15:35;10.38;;;1.27;;
64714;SDS011;51144;53.002;6.506;2023-04-25T06:18:01;11.15;;;1.00;;
64714;SDS011;51144;53.002;6.506;2023-04-25T06:20:27;14.73;;;2.05;;
64714;SDS011;51144;53.002;6.506;2023-04-25T06:22:52;15.43;;;1.88;;
64714;SDS011;51144;53.002;6.506;2023-04-25T06:25:18;14.38;;;1.45;;
64714;SDS011;51144;53.002;6.506;2023-04-25T06:27:44;10.40;;;1.35;;
64714;SDS011;51144;53.002;6.506;2023-04-25T06:30:10;13.40;;;1.40;;
64714;SDS011;51144;53.002;6.506;2023-04-25T06:32:37;10.10;;;1.40;;
64714;SDS011;51144;53.002;6.506;2023-04-25T06:35:03;12.75;;;0.85;;
64714;SDS011;51144;53.002;6.506;2023-04-25T06:37:30;7.10;;;0.90;;
64714;SDS011;51144;53.002;6.506;2023-04-25T06:39:56;7.85;;;0.65;;
64714;SDS011;51144;53.002;6.506;2023-04-25T06:42:21;3.95;;;0.50;;
64714;SDS011;51144;53.002;6.506;2023-04-25T06:44:47;5.65;;;0.77;;
64714;SDS011;51144;53.002;6.506;2023-04-25T06:47:13;8.18;;;1.30;;
64714;SDS011;51144;53.002;6.506;2023-04-25T06:49:39;10.38;;;0.88;;
64714;SDS011;51144;53.002;6.506;2023-04-25T06:52:05;9.63;;;0.68;;
64714;SDS011;51144;53.002;6.506;2023-04-25T06:54:30;5.05;;;0.80;;
64714;SDS011;51144;53.002;6.506;2023-04-25T06:56:56;10.50;;;0.88;;
64714;SDS011;51144;53.002;6.506;2023-04-25T06:59:22;9.25;;;0.93;;
64714;SDS011;51144;53.002;6.506;2023-04-25T07:01:47;9.13;;;0.75;;
64714;SDS011;51144;53.002;6.506;2023-04-25T07:04:13;9.57;;;0.95;;
64714;SDS011;51144;53.002;6.506;2023-04-25T07:06:38;11.93;;;0.85;;
64714;SDS011;51144;53.002;6.506;2023-04-25T07:09:10;9.95;;;0.82;;
64714;SDS011;51144;53.002;6.506;2023-04-25T07:11:36;7.07;;;0.52;;
64714;SDS011;51144;53.002;6.506;2023-04-25T07:14:02;8.38;;;0.60;;
64714;SDS011;51144;53.002;6.506;2023-04-25T07:16:28;11.38;;;0.50;;
64714;SDS011;51144;53.002;6.506;2023-04-25T07:18:53;8.02;;;0.65;;
64714;SDS011;51144;53.002;6.506;2023-04-25T07:21:19;9.75;;;0.93;;
64714;SDS011;51144;53.002;6.506;2023-04-25T07:23:45;9.07;;;0.80;;
64714;SDS011;51144;53.002;6.506;2023-04-25T07:26:10;12.50;;;1.15;;
64714;SDS011;51144;53.002;6.506;2023-04-25T07:28:36;4.93;;;0.40;;
64714;SDS011;51144;53.002;6.506;2023-04-25T07:31:02;8.32;;;0.82;;
64714;SDS011;51144;53.002;6.506;2023-04-25T07:33:28;7.07;;;0.50;;
64714;SDS011;51144;53.002;6.506;2023-04-25T07:35:53;12.73;;;0.63;;
64714;SDS011;51144;53.002;6.506;2023-04-25T07:38:20;8.82;;;1.00;;
64714;SDS011;51144;53.002;6.506;2023-04-25T07:40:47;9.57;;;0.77;;
64714;SDS011;51144;53.002;6.506;2023-04-25T07:43:13;6.32;;;0.82;;
64714;SDS011;51144;53.002;6.506;2023-04-25T07:45:41;8.88;;;1.00;;
64714;SDS011;51144;53.002;6.506;2023-04-25T07:48:07;11.25;;;1.60;;
64714;SDS011;51144;53.002;6.506;2023-04-25T07:50:33;4.38;;;0.60;;
64714;SDS011;51144;53.002;6.506;2023-04-25T07:52:59;10.15;;;0.90;;
64714;SDS011;51144;53.002;6.506;2023-04-25T07:55:24;10.65;;;1.15;;
64714;SDS011;51144;53.002;6.506;2023-04-25T07:57:50;12.10;;;0.73;;
64714;SDS011;51144;53.002;6.506;2023-04-25T08:00:15;8.50;;;0.60;;
64714;SDS011;51144;53.002;6.506;2023-04-25T08:02:41;13.40;;;0.60;;
64714;SDS011;51144;53.002;6.506;2023-04-25T08:05:07;6.05;;;0.73;;
64714;SDS011;51144;53.002;6.506;2023-04-25T08:07:37;7.68;;;0.60;;
64714;SDS011;51144;53.002;6.506;2023-04-25T08:10:04;7.63;;;0.60;;
64714;SDS011;51144;53.002;6.506;2023-04-25T08:12:30;4.93;;;0.55;;
64714;SDS011;51144;53.002;6.506;2023-04-25T08:14:56;6.07;;;0.45;;
64714;SDS011;51144;53.002;6.506;2023-04-25T08:17:22;7.78;;;1.05;;
64714;SDS011;51144;53.002;6.506;2023-04-25T08:19:47;7.60;;;0.90;;
64714;SDS011;51144;53.002;6.506;2023-04-25T08:22:13;8.60;;;0.40;;
64714;SDS011;51144;53.002;6.506;2023-04-25T08:24:39;7.00;;;0.82;;
64714;SDS011;51144;53.002;6.506;2023-04-25T08:27:06;5.30;;;0.47;;
64714;SDS011;51144;53.002;6.506;2023-04-25T08:29:32;6.40;;;0.30;;
64714;SDS011;51144;53.002;6.506;2023-04-25T08:31:59;8.40;;;1.25;;
64714;SDS011;51144;53.002;6.506;2023-04-25T08:34:24;6.90;;;0.88;;
64714;SDS011;51144;53.002;6.506;2023-04-25T08:36:50;7.78;;;0.50;;
64714;SDS011;51144;53.002;6.506;2023-04-25T08:39:16;7.70;;;0.50;;
64714;SDS011;51144;53.002;6.506;2023-04-25T08:41:42;6.75;;;1.55;;
64714;SDS011;51144;53.002;6.506;2023-04-25T08:44:09;9.40;;;0.50;;
64714;SDS011;51144;53.002;6.506;2023-04-25T08:46:39;6.82;;;0.50;;
64714;SDS011;51144;53.002;6.506;2023-04-25T08:49:06;3.42;;;0.30;;
64714;SDS011;51144;53.002;6.506;2023-04-25T08:51:38;2.03;;;0.10;;
64714;SDS011;51144;53.002;6.506;2023-04-25T08:54:13;3.00;;;0.20;;
64714;SDS011;51144;53.002;6.506;2023-04-25T08:56:40;6.15;;;0.22;;
64714;SDS011;51144;53.002;6.506;2023-04-25T08:59:09;1.52;;;0.15;;
64714;SDS011;51144;53.002;6.506;2023-04-25T09:01:36;6.53;;;0.68;;
64714;SDS011;51144;53.002;6.506;2023-04-25T09:04:02;3.78;;;0.43;;
64714;SDS011;51144;53.002;6.506;2023-04-25T09:06:30;1.88;;;0.50;;
64714;SDS011;51144;53.002;6.506;2023-04-25T09:09:06;6.18;;;0.32;;
64714;SDS011;51144;53.002;6.506;2023-04-25T09:11:33;6.30;;;0.40;;
64714;SDS011;51144;53.002;6.506;2023-04-25T09:19:21;2.25;;;0.17;;
64714;SDS011;51144;53.002;6.506;2023-04-25T09:21:50;1.90;;;0.30;;
64714;SDS011;51144;53.002;6.506;2023-04-25T09:24:28;4.72;;;0.20;;
64714;SDS011;51144;53.002;6.506;2023-04-25T09:27:06;3.22;;;0.28;;
64714;SDS011;51144;53.002;6.506;2023-04-25T09:29:37;6.32;;;0.20;;
64714;SDS011;51144;53.002;6.506;2023-04-25T09:34:57;5.28;;;0.30;;
64714;SDS011;51144;53.002;6.506;2023-04-25T09:37:23;5.45;;;0.40;;
64714;SDS011;51144;53.002;6.506;2023-04-25T09:39:56;6.93;;;1.58;;
64714;SDS011;51144;53.002;6.506;2023-04-25T09:42:30;8.35;;;1.33;;
64714;SDS011;51144;53.002;6.506;2023-04-25T09:44:57;8.77;;;0.57;;
64714;SDS011;51144;53.002;6.506;2023-04-25T09:47:26;10.20;;;0.90;;
64714;SDS011;51144;53.002;6.506;2023-04-25T09:49:53;5.63;;;0.50;;
64714;SDS011;51144;53.002;6.506;2023-04-25T09:52:21;10.50;;;0.40;;
64714;SDS011;51144;53.002;6.506;2023-04-25T09:54:48;8.43;;;0.65;;
64714;SDS011;51144;53.002;6.506;2023-04-25T09:57:15;5.38;;;0.73;;
64714;SDS011;51144;53.002;6.506;2023-04-25T09:59:47;6.25;;;0.60;;
64714;SDS011;51144;53.002;6.506;2023-04-25T10:02:14;6.00;;;0.40;;
64714;SDS011;51144;53.002;6.506;2023-04-25T10:04:41;4.93;;;0.50;;
64714;SDS011;51144;53.002;6.506;2023-04-25T10:07:10;10.18;;;0.90;;
64714;SDS011;51144;53.002;6.506;2023-04-25T10:09:37;11.75;;;0.95;;
64714;SDS011;51144;53.002;6.506;2023-04-25T10:12:05;7.88;;;0.88;;
64714;SDS011;51144;53.002;6.506;2023-04-25T10:14:34;15.93;;;1.58;;
64714;SDS011;51144;53.002;6.506;2023-04-25T10:17:00;10.32;;;0.70;;
64714;SDS011;51144;53.002;6.506;2023-04-25T10:19:27;13.30;;;1.33;;
64714;SDS011;51144;53.002;6.506;2023-04-25T10:22:06;14.13;;;1.67;;
64714;SDS011;51144;53.002;6.506;2023-04-25T10:24:34;4.53;;;0.50;;
64714;SDS011;51144;53.002;6.506;2023-04-25T10:27:01;9.57;;;1.02;;
64714;SDS011;51144;53.002;6.506;2023-04-25T10:29:28;7.30;;;0.77;;
64714;SDS011;51144;53.002;6.506;2023-04-25T10:31:54;6.85;;;0.57;;
64714;SDS011;51144;53.002;6.506;2023-04-25T10:34:23;5.97;;;0.40;;
64714;SDS011;51144;53.002;6.506;2023-04-25T10:36:51;8.57;;;0.98;;
64714;SDS011;51144;53.002;6.506;2023-04-25T10:39:24;8.63;;;0.73;;
64714;SDS011;51144;53.002;6.506;2023-04-25T10:41:55;11.68;;;0.63;;
64714;SDS011;51144;53.002;6.506;2023-04-25T10:44:22;8.55;;;0.50;;
64714;SDS011;51144;53.002;6.506;2023-04-25T10:46:50;4.78;;;0.47;;
64714;SDS011;51144;53.002;6.506;2023-04-25T10:49:38;5.60;;;0.77;;
64714;SDS011;51144;53.002;6.506;2023-04-25T10:54:54;5.75;;;0.73;;
64714;SDS011;51144;53.002;6.506;2023-04-25T10:59:57;4.38;;;0.30;;
64714;SDS011;51144;53.002;6.506;2023-04-25T11:02:26;3.78;;;0.40;;
64714;SDS011;51144;53.002;6.506;2023-04-25T11:04:53;10.13;;;0.70;;
64714;SDS011;51144;53.002;6.506;2023-04-25T11:07:23;8.63;;;0.80;;
64714;SDS011;51144;53.002;6.506;2023-04-25T11:10:09;10.40;;;0.70;;
64714;SDS011;51144;53.002;6.506;2023-04-25T11:12:35;8.45;;;0.70;;
64714;SDS011;51144;53.002;6.506;2023-04-25T11:15:01;3.50;;;0.45;;
64714;SDS011;51144;53.002;6.506;2023-04-25T11:17:28;4.70;;;0.75;;
64714;SDS011;51144;53.002;6.506;2023-04-25T11:19:54;5.63;;;0.40;;
64714;SDS011;51144;53.002;6.506;2023-04-25T11:22:21;6.03;;;0.40;;
64714;SDS011;51144;53.002;6.506;2023-04-25T11:24:47;9.10;;;0.47;;
64714;SDS011;51144;53.002;6.506;2023-04-25T11:27:13;6.55;;;0.57;;
64714;SDS011;51144;53.002;6.506;2023-04-25T11:29:38;9.65;;;0.60;;
64714;SDS011;51144;53.002;6.506;2023-04-25T11:32:04;9.52;;;0.77;;
64714;SDS011;51144;53.002;6.506;2023-04-25T11:34:30;4.40;;;0.65;;
64714;SDS011;51144;53.002;6.506;2023-04-25T11:36:58;8.38;;;0.65;;
64714;SDS011;51144;53.002;6.506;2023-04-25T11:39:24;10.77;;;0.93;;
64714;SDS011;51144;53.002;6.506;2023-04-25T11:41:51;8.80;;;1.38;;
64714;SDS011;51144;53.002;6.506;2023-04-25T11:44:17;12.23;;;1.55;;
64714;SDS011;51144;53.002;6.506;2023-04-25T11:46:44;10.50;;;0.88;;
64714;SDS011;51144;53.002;6.506;2023-04-25T11:49:11;10.02;;;0.77;;
64714;SDS011;51144;53.002;6.506;2023-04-25T11:51:40;8.93;;;0.93;;
64714;SDS011;51144;53.002;6.506;2023-04-25T11:54:08;5.63;;;0.70;;
64714;SDS011;51144;53.002;6.506;2023-04-25T11:56:34;7.95;;;0.60;;
64714;SDS011;51144;53.002;6.506;2023-04-25T11:59:01;14.45;;;1.02;;
64714;SDS011;51144;53.002;6.506;2023-04-25T12:01:31;12.63;;;0.95;;
64714;SDS011;51144;53.002;6.506;2023-04-25T12:03:58;15.02;;;1.17;;
64714;SDS011;51144;53.002;6.506;2023-04-25T12:06:36;18.15;;;1.30;;
64714;SDS011;51144;53.002;6.506;2023-04-25T12:09:07;7.90;;;0.50;;
64714;SDS011;51144;53.002;6.506;2023-04-25T12:11:52;5.63;;;0.50;;
64714;SDS011;51144;53.002;6.506;2023-04-25T12:16:49;8.07;;;0.85;;
64714;SDS011;51144;53.002;6.506;2023-04-25T12:19:16;5.43;;;0.77;;
64714;SDS011;51144;53.002;6.506;2023-04-25T12:21:43;5.72;;;0.43;;
64714;SDS011;51144;53.002;6.506;2023-04-25T12:24:10;4.55;;;0.52;;
64714;SDS011;51144;53.002;6.506;2023-04-25T12:26:46;4.55;;;0.30;;
64714;SDS011;51144;53.002;6.506;2023-04-25T12:29:15;4.75;;;0.30;;
64714;SDS011;51144;53.002;6.506;2023-04-25T12:31:42;5.38;;;0.52;;
64714;SDS011;51144;53.002;6.506;2023-04-25T12:34:07;7.20;;;0.50;;
64714;SDS011;51144;53.002;6.506;2023-04-25T12:36:33;7.57;;;0.50;;
64714;SDS011;51144;53.002;6.506;2023-04-25T12:38:59;6.70;;;0.30;;
64714;SDS011;51144;53.002;6.506;2023-04-25T12:41:29;9.52;;;1.73;;
64714;SDS011;51144;53.002;6.506;2023-04-25T12:43:55;7.15;;;0.73;;
64714;SDS011;51144;53.002;6.506;2023-04-25T12:46:20;6.88;;;0.52;;
64714;SDS011;51144;53.002;6.506;2023-04-25T12:48:47;6.53;;;0.40;;
64714;SDS011;51144;53.002;6.506;2023-04-25T12:51:13;8.10;;;0.45;;
64714;SDS011;51144;53.002;6.506;2023-04-25T12:53:39;7.53;;;0.75;;
64714;SDS011;51144;53.002;6.506;2023-04-25T12:56:06;8.30;;;0.73;;
64714;SDS011;51144;53.002;6.506;2023-04-25T12:58:35;8.05;;;0.75;;
64714;SDS011;51144;53.002;6.506;2023-04-25T13:01:00;9.90;;;0.43;;
64714;SDS011;51144;53.002;6.506;2023-04-25T13:03:26;7.90;;;1.23;;
64714;SDS011;51144;53.002;6.506;2023-04-25T13:05:52;8.07;;;0.60;;
64714;SDS011;51144;53.002;6.506;2023-04-25T13:08:20;6.93;;;0.40;;
64714;SDS011;51144;53.002;6.506;2023-04-25T13:10:49;9.80;;;1.45;;
64714;SDS011;51144;53.002;6.506;2023-04-25T13:13:15;6.55;;;0.70;;
64714;SDS011;51144;53.002;6.506;2023-04-25T13:15:41;6.60;;;0.73;;
64714;SDS011;51144;53.002;6.506;2023-04-25T13:18:07;6.50;;;0.63;;
64714;SDS011;51144;53.002;6.506;2023-04-25T13:20:32;5.35;;;1.20;;
64714;SDS011;51144;53.002;6.506;2023-04-25T13:22:58;8.45;;;0.43;;
64714;SDS011;51144;53.002;6.506;2023-04-25T13:25:24;11.07;;;1.13;;
64714;SDS011;51144;53.002;6.506;2023-04-25T13:27:50;6.68;;;0.50;;
64714;SDS011;51144;53.002;6.506;2023-04-25T13:30:16;7.72;;;0.70;;
64714;SDS011;51144;53.002;6.506;2023-04-25T13:32:42;8.60;;;1.38;;
64714;SDS011;51144;53.002;6.506;2023-04-25T13:35:09;11.65;;;1.10;;
64714;SDS011;51144;53.002;6.506;2023-04-25T13:37:36;7.53;;;0.52;;
64714;SDS011;51144;53.002;6.506;2023-04-25T13:40:04;9.50;;;0.73;;
64714;SDS011;51144;53.002;6.506;2023-04-25T13:42:33;6.93;;;0.80;;
64714;SDS011;51144;53.002;6.506;2023-04-25T13:44:59;6.00;;;0.40;;
64714;SDS011;51144;53.002;6.506;2023-04-25T13:47:25;10.20;;;1.30;;
64714;SDS011;51144;53.002;6.506;2023-04-25T13:49:51;11.18;;;0.70;;
64714;SDS011;51144;53.002;6.506;2023-04-25T13:52:17;9.65;;;0.93;;
64714;SDS011;51144;53.002;6.506;2023-04-25T13:54:43;5.65;;;0.57;;
64714;SDS011;51144;53.002;6.506;2023-04-25T13:57:09;10.20;;;0.82;;
64714;SDS011;51144;53.002;6.506;2023-04-25T13:59:36;13.82;;;2.00;;
64714;SDS011;51144;53.002;6.506;2023-04-25T14:02:02;3.78;;;0.50;;
64714;SDS011;51144;53.002;6.506;2023-04-25T14:04:28;5.28;;;0.20;;
64714;SDS011;51144;53.002;6.506;2023-04-25T14:06:53;3.63;;;0.47;;
64714;SDS011;51144;53.002;6.506;2023-04-25T14:09:20;11.02;;;0.65;;
64714;SDS011;51144;53.002;6.506;2023-04-25T14:11:50;3.75;;;0.43;;
64714;SDS011;51144;53.002;6.506;2023-04-25T14:14:19;3.97;;;0.80;;
64714;SDS011;51144;53.002;6.506;2023-04-25T14:16:46;4.13;;;0.50;;
64714;SDS011;51144;53.002;6.506;2023-04-25T14:19:16;6.78;;;0.50;;
64714;SDS011;51144;53.002;6.506;2023-04-25T14:21:43;5.43;;;0.82;;
64714;SDS011;51144;53.002;6.506;2023-04-25T14:24:08;4.50;;;0.25;;
64714;SDS011;51144;53.002;6.506;2023-04-25T14:26:35;8.85;;;0.65;;
64714;SDS011;51144;53.002;6.506;2023-04-25T14:29:01;4.88;;;0.75;;
64714;SDS011;51144;53.002;6.506;2023-04-25T14:31:28;6.03;;;0.55;;
64714;SDS011;51144;53.002;6.506;2023-04-25T14:33:53;6.25;;;0.30;;
64714;SDS011;51144;53.002;6.506;2023-04-25T14:36:20;5.57;;;0.40;;
64714;SDS011;51144;53.002;6.506;2023-04-25T14:38:47;6.38;;;0.50;;
64714;SDS011;51144;53.002;6.506;2023-04-25T14:41:13;7.70;;;0.82;;
64714;SDS011;51144;53.002;6.506;2023-04-25T14:43:38;5.30;;;0.57;;
64714;SDS011;51144;53.002;6.506;2023-04-25T14:46:07;12.40;;;1.00;;
64714;SDS011;51144;53.002;6.506;2023-04-25T14:48:33;5.97;;;0.80;;
64714;SDS011;51144;53.002;6.506;2023-04-25T14:51:00;8.13;;;0.85;;
64714;SDS011;51144;53.002;6.506;2023-04-25T14:53:26;7.95;;;0.63;;